sensor_id;sensor_type;location;lat;lon;timestamp;temperature;humidity
16814;DHT22;8524;57.650;11.926;2023-06-14T00:00:47;13.90;99.90
16814;DHT22;8524;57.650;11.926;2023-06-14T00:03:14;13.90;99.90
16814;DHT22;8524;57.650;11.926;2023-06-14T00:05:44;13.80;99.90
16814;DHT22;8524;57.650;11.926;2023-06-14T00:08:13;13.80;99.90
16814;DHT22;8524;57.650;11.926;2023-06-14T00:10:40;13.70;99.90
16814;DHT22;8524;57.650;11.926;2023-06-14T00:13:08;13.70;99.90
16814;DHT22;8524;57.650;11.926;2023-06-14T00:15:35;13.70;99.90
16814;DHT22;8524;57.650;11.926;2023-06-14T00:18:03;13.60;99.90
16814;DHT22;8524;57.650;11.926;2023-06-14T00:20:31;13.60;99.90
16814;DHT22;8524;57.650;11.926;2023-06-14T00:23:01;13.50;99.90
16814;DHT22;8524;57.650;11.926;2023-06-14T00:25:29;13.40;99.90
16814;DHT22;8524;57.650;11.926;2023-06-14T00:27:56;13.30;99.90
16814;DHT22;8524;57.650;11.926;2023-06-14T00:30:24;13.20;99.90
16814;DHT22;8524;57.650;11.926;2023-06-14T00:32:56;13.10;99.90
16814;DHT22;8524;57.650;11.926;2023-06-14T00:35:23;13.10;99.90
16814;DHT22;8524;57.650;11.926;2023-06-14T00:37:51;13.00;99.90
16814;DHT22;8524;57.650;11.926;2023-06-14T00:40:19;12.90;99.90
16814;DHT22;8524;57.650;11.926;2023-06-14T00:42:46;12.80;99.90
16814;DHT22;8524;57.650;11.926;2023-06-14T00:45:13;12.70;99.90
16814;DHT22;8524;57.650;11.926;2023-06-14T00:47:41;12.70;99.90
16814;DHT22;8524;57.650;11.926;2023-06-14T00:50:10;12.70;99.90
16814;DHT22;8524;57.650;11.926;2023-06-14T00:52:37;12.70;99.90
16814;DHT22;8524;57.650;11.926;2023-06-14T00:55:05;12.50;99.90
16814;DHT22;8524;57.650;11.926;2023-06-14T00:57:33;12.40;99.90
16814;DHT22;8524;57.650;11.926;2023-06-14T01:00:03;12.50;99.90
16814;DHT22;8524;57.650;11.926;2023-06-14T01:02:34;12.50;99.90
16814;DHT22;8524;57.650;11.926;2023-06-14T01:05:02;12.50;99.90
16814;DHT22;8524;57.650;11.926;2023-06-14T01:08:10;12.60;99.90
16814;DHT22;8524;57.650;11.926;2023-06-14T01:10:51;12.50;99.90
16814;DHT22;8524;57.650;11.926;2023-06-14T01:13:25;12.40;99.90
16814;DHT22;8524;57.650;11.926;2023-06-14T01:15:55;12.30;99.90
16814;DHT22;8524;57.650;11.926;2023-06-14T01:18:22;12.20;99.90
16814;DHT22;8524;57.650;11.926;2023-06-14T01:20:51;12.10;99.90
16814;DHT22;8524;57.650;11.926;2023-06-14T01:23:23;11.90;99.90
16814;DHT22;8524;57.650;11.926;2023-06-14T01:25:50;11.90;99.90
16814;DHT22;8524;57.650;11.926;2023-06-14T01:28:20;11.70;99.90
16814;DHT22;8524;57.650;11.926;2023-06-14T01:30:49;11.70;99.90
16814;DHT22;8524;57.650;11.926;2023-06-14T01:33:20;11.70;99.90
16814;DHT22;8524;57.650;11.926;2023-06-14T01:35:49;11.60;99.90
16814;DHT22;8524;57.650;11.926;2023-06-14T01:38:19;11.60;99.90
16814;DHT22;8524;57.650;11.926;2023-06-14T01:40:49;11.60;99.90
16814;DHT22;8524;57.650;11.926;2023-06-14T01:43:17;11.60;99.90
16814;DHT22;8524;57.650;11.926;2023-06-14T01:45:47;11.70;99.90
16814;DHT22;8524;57.650;11.926;2023-06-14T01:48:14;11.70;99.90
16814;DHT22;8524;57.650;11.926;2023-06-14T01:50:42;11.60;99.90
16814;DHT22;8524;57.650;11.926;2023-06-14T01:53:09;11.60;99.90
16814;DHT22;8524;57.650;11.926;2023-06-14T01:55:37;11.50;99.90
16814;DHT22;8524;57.650;11.926;2023-06-14T01:58:05;11.40;99.90
16814;DHT22;8524;57.650;11.926;2023-06-14T02:00:32;11.30;99.90
16814;DHT22;8524;57.650;11.926;2023-06-14T02:02:59;11.30;99.90
16814;DHT22;8524;57.650;11.926;2023-06-14T02:05:26;11.20;99.90
16814;DHT22;8524;57.650;11.926;2023-06-14T02:07:53;11.10;99.90
16814;DHT22;8524;57.650;11.926;2023-06-14T02:10:21;11.10;99.90
16814;DHT22;8524;57.650;11.926;2023-06-14T02:12:48;11.10;99.90
16814;DHT22;8524;57.650;11.926;2023-06-14T02:15:17;11.10;99.90
16814;DHT22;8524;57.650;11.926;2023-06-14T02:17:45;11.20;99.90
16814;DHT22;8524;57.650;11.926;2023-06-14T02:20:13;11.20;99.90
16814;DHT22;8524;57.650;11.926;2023-06-14T02:22:40;11.20;99.90
16814;DHT22;8524;57.650;11.926;2023-06-14T02:25:08;11.20;99.90
16814;DHT22;8524;57.650;11.926;2023-06-14T02:27:35;11.10;99.90
16814;DHT22;8524;57.650;11.926;2023-06-14T02:30:03;11.10;99.90
16814;DHT22;8524;57.650;11.926;2023-06-14T02:32:32;11.00;99.90
16814;DHT22;8524;57.650;11.926;2023-06-14T02:34:59;10.90;99.90
16814;DHT22;8524;57.650;11.926;2023-06-14T02:37:26;10.90;99.90
16814;DHT22;8524;57.650;11.926;2023-06-14T02:39:53;10.80;99.90
16814;DHT22;8524;57.650;11.926;2023-06-14T02:42:20;10.90;99.90
16814;DHT22;8524;57.650;11.926;2023-06-14T02:44:47;10.80;99.90
16814;DHT22;8524;57.650;11.926;2023-06-14T02:47:16;10.70;99.90
16814;DHT22;8524;57.650;11.926;2023-06-14T02:49:45;10.70;99.90
16814;DHT22;8524;57.650;11.926;2023-06-14T02:52:12;10.80;99.90
16814;DHT22;8524;57.650;11.926;2023-06-14T02:54:39;10.80;99.90
16814;DHT22;8524;57.650;11.926;2023-06-14T02:57:07;10.80;99.90
16814;DHT22;8524;57.650;11.926;2023-06-14T02:59:34;10.80;99.90
16814;DHT22;8524;57.650;11.926;2023-06-14T03:02:01;10.90;99.90
16814;DHT22;8524;57.650;11.926;2023-06-14T03:04:28;11.00;99.90
16814;DHT22;8524;57.650;11.926;2023-06-14T03:07:04;11.00;99.90
16814;DHT22;8524;57.650;11.926;2023-06-14T03:09:35;11.10;99.90
16814;DHT22;8524;57.650;11.926;2023-06-14T03:12:03;11.10;99.90
16814;DHT22;8524;57.650;11.926;2023-06-14T03:14:32;11.10;99.90
16814;DHT22;8524;57.650;11.926;2023-06-14T03:17:02;11.10;99.90
16814;DHT22;8524;57.650;11.926;2023-06-14T03:19:30;11.10;99.90
16814;DHT22;8524;57.650;11.926;2023-06-14T03:21:57;11.20;99.90
16814;DHT22;8524;57.650;11.926;2023-06-14T03:24:26;11.20;99.90
16814;DHT22;8524;57.650;11.926;2023-06-14T03:26:54;11.20;99.90
16814;DHT22;8524;57.650;11.926;2023-06-14T03:29:22;11.20;99.90
16814;DHT22;8524;57.650;11.926;2023-06-14T03:32:00;11.20;99.90
16814;DHT22;8524;57.650;11.926;2023-06-14T03:34:27;11.20;99.90
16814;DHT22;8524;57.650;11.926;2023-06-14T03:36:54;11.20;99.90
16814;DHT22;8524;57.650;11.926;2023-06-14T03:39:21;11.30;99.90
16814;DHT22;8524;57.650;11.926;2023-06-14T03:41:49;11.40;99.90
16814;DHT22;8524;57.650;11.926;2023-06-14T03:44:17;11.50;99.90
16814;DHT22;8524;57.650;11.926;2023-06-14T03:46:45;11.60;99.90
16814;DHT22;8524;57.650;11.926;2023-06-14T03:49:12;11.60;99.90
16814;DHT22;8524;57.650;11.926;2023-06-14T03:51:39;11.60;99.90
16814;DHT22;8524;57.650;11.926;2023-06-14T03:54:06;11.70;99.90
16814;DHT22;8524;57.650;11.926;2023-06-14T03:56:33;11.70;99.90
16814;DHT22;8524;57.650;11.926;2023-06-14T03:59:02;11.80;99.90
16814;DHT22;8524;57.650;11.926;2023-06-14T04:01:29;11.80;99.90
16814;DHT22;8524;57.650;11.926;2023-06-14T04:03:57;11.90;99.90
16814;DHT22;8524;57.650;11.926;2023-06-14T04:06:24;12.00;99.90
16814;DHT22;8524;57.650;11.926;2023-06-14T04:08:58;12.00;99.90
16814;DHT22;8524;57.650;11.926;2023-06-14T04:11:29;12.10;99.90
16814;DHT22;8524;57.650;11.926;2023-06-14T04:13:56;12.20;99.90
16814;DHT22;8524;57.650;11.926;2023-06-14T04:16:24;12.40;99.90
16814;DHT22;8524;57.650;11.926;2023-06-14T04:18:51;12.50;99.90
16814;DHT22;8524;57.650;11.926;2023-06-14T04:21:18;12.70;99.90
16814;DHT22;8524;57.650;11.926;2023-06-14T04:23:45;12.80;99.90
16814;DHT22;8524;57.650;11.926;2023-06-14T04:26:13;13.10;99.90
16814;DHT22;8524;57.650;11.926;2023-06-14T04:28:41;13.30;99.90
16814;DHT22;8524;57.650;11.926;2023-06-14T04:31:10;13.60;99.90
16814;DHT22;8524;57.650;11.926;2023-06-14T04:33:39;13.90;99.90
16814;DHT22;8524;57.650;11.926;2023-06-14T04:36:09;14.10;99.90
16814;DHT22;8524;57.650;11.926;2023-06-14T04:38:37;14.40;99.90
16814;DHT22;8524;57.650;11.926;2023-06-14T04:41:05;14.60;99.90
16814;DHT22;8524;57.650;11.926;2023-06-14T04:43:32;14.70;99.90
16814;DHT22;8524;57.650;11.926;2023-06-14T04:46:04;14.90;99.90
16814;DHT22;8524;57.650;11.926;2023-06-14T04:48:36;15.20;99.90
16814;DHT22;8524;57.650;11.926;2023-06-14T04:51:07;15.40;99.90
16814;DHT22;8524;57.650;11.926;2023-06-14T04:53:34;15.60;99.90
16814;DHT22;8524;57.650;11.926;2023-06-14T04:56:02;15.70;99.90
16814;DHT22;8524;57.650;11.926;2023-06-14T04:58:30;15.80;99.90
16814;DHT22;8524;57.650;11.926;2023-06-14T05:00:57;15.90;99.90
16814;DHT22;8524;57.650;11.926;2023-06-14T05:03:25;16.00;99.90
16814;DHT22;8524;57.650;11.926;2023-06-14T05:05:53;16.10;99.90
16814;DHT22;8524;57.650;11.926;2023-06-14T05:08:22;16.20;99.90
16814;DHT22;8524;57.650;11.926;2023-06-14T05:10:50;16.30;99.90
16814;DHT22;8524;57.650;11.926;2023-06-14T05:13:17;16.40;99.90
16814;DHT22;8524;57.650;11.926;2023-06-14T05:15:44;16.40;99.90
16814;DHT22;8524;57.650;11.926;2023-06-14T05:18:12;16.60;99.90
16814;DHT22;8524;57.650;11.926;2023-06-14T05:20:40;16.70;99.90
16814;DHT22;8524;57.650;11.926;2023-06-14T05:23:09;16.80;99.90
16814;DHT22;8524;57.650;11.926;2023-06-14T05:25:42;16.90;99.90
16814;DHT22;8524;57.650;11.926;2023-06-14T05:28:10;17.00;99.90
16814;DHT22;8524;57.650;11.926;2023-06-14T05:30:38;17.20;99.90
16814;DHT22;8524;57.650;11.926;2023-06-14T05:33:05;17.40;99.90
16814;DHT22;8524;57.650;11.926;2023-06-14T05:35:32;17.60;99.90
16814;DHT22;8524;57.650;11.926;2023-06-14T05:37:59;17.80;99.90
16814;DHT22;8524;57.650;11.926;2023-06-14T05:40:26;18.00;99.90
16814;DHT22;8524;57.650;11.926;2023-06-14T05:42:55;18.20;99.90
16814;DHT22;8524;57.650;11.926;2023-06-14T05:45:22;18.50;99.90
16814;DHT22;8524;57.650;11.926;2023-06-14T05:47:49;18.80;99.90
16814;DHT22;8524;57.650;11.926;2023-06-14T05:50:16;19.10;99.90
16814;DHT22;8524;57.650;11.926;2023-06-14T05:52:47;19.40;99.90
16814;DHT22;8524;57.650;11.926;2023-06-14T05:55:15;19.60;99.90
16814;DHT22;8524;57.650;11.926;2023-06-14T05:57:42;19.90;99.90
16814;DHT22;8524;57.650;11.926;2023-06-14T06:00:12;20.10;99.90
16814;DHT22;8524;57.650;11.926;2023-06-14T06:02:41;20.30;99.90
16814;DHT22;8524;57.650;11.926;2023-06-14T06:05:08;20.60;99.90
16814;DHT22;8524;57.650;11.926;2023-06-14T06:07:35;20.80;99.90
16814;DHT22;8524;57.650;11.926;2023-06-14T06:10:03;21.00;99.90
16814;DHT22;8524;57.650;11.926;2023-06-14T06:12:30;21.50;99.90
16814;DHT22;8524;57.650;11.926;2023-06-14T06:14:58;21.70;99.90
16814;DHT22;8524;57.650;11.926;2023-06-14T06:17:39;22.00;99.90
16814;DHT22;8524;57.650;11.926;2023-06-14T06:20:07;22.10;99.90
16814;DHT22;8524;57.650;11.926;2023-06-14T06:22:35;22.40;99.90
16814;DHT22;8524;57.650;11.926;2023-06-14T06:25:06;22.50;99.90
16814;DHT22;8524;57.650;11.926;2023-06-14T06:27:34;22.90;99.90
16814;DHT22;8524;57.650;11.926;2023-06-14T06:30:03;22.90;99.90
16814;DHT22;8524;57.650;11.926;2023-06-14T06:32:35;23.40;99.90
16814;DHT22;8524;57.650;11.926;2023-06-14T06:35:05;23.30;99.90
16814;DHT22;8524;57.650;11.926;2023-06-14T06:37:34;23.40;99.90
16814;DHT22;8524;57.650;11.926;2023-06-14T06:40:06;23.90;99.90
16814;DHT22;8524;57.650;11.926;2023-06-14T06:42:37;23.80;99.90
16814;DHT22;8524;57.650;11.926;2023-06-14T06:45:07;24.30;99.90
16814;DHT22;8524;57.650;11.926;2023-06-14T06:47:39;24.60;99.90
16814;DHT22;8524;57.650;11.926;2023-06-14T06:50:07;24.90;99.90
16814;DHT22;8524;57.650;11.926;2023-06-14T06:52:34;25.10;99.90
16814;DHT22;8524;57.650;11.926;2023-06-14T06:55:07;25.40;99.90
16814;DHT22;8524;57.650;11.926;2023-06-14T06:57:40;25.60;99.90
16814;DHT22;8524;57.650;11.926;2023-06-14T07:00:11;25.40;99.90
16814;DHT22;8524;57.650;11.926;2023-06-14T07:02:43;25.50;99.90
16814;DHT22;8524;57.650;11.926;2023-06-14T07:05:13;25.50;99.90
16814;DHT22;8524;57.650;11.926;2023-06-14T07:07:40;25.50;99.90
16814;DHT22;8524;57.650;11.926;2023-06-14T07:10:15;25.40;99.80
16814;DHT22;8524;57.650;11.926;2023-06-14T07:12:42;25.60;99.90
16814;DHT22;8524;57.650;11.926;2023-06-14T07:15:09;25.50;98.70
16814;DHT22;8524;57.650;11.926;2023-06-14T07:17:37;25.80;99.30
16814;DHT22;8524;57.650;11.926;2023-06-14T07:20:06;26.10;99.20
16814;DHT22;8524;57.650;11.926;2023-06-14T07:22:39;25.90;99.60
16814;DHT22;8524;57.650;11.926;2023-06-14T07:25:08;25.70;98.00
16814;DHT22;8524;57.650;11.926;2023-06-14T07:27:35;26.20;97.80
16814;DHT22;8524;57.650;11.926;2023-06-14T07:30:02;26.10;96.10
16814;DHT22;8524;57.650;11.926;2023-06-14T07:32:29;26.20;97.30
16814;DHT22;8524;57.650;11.926;2023-06-14T07:34:56;26.60;96.40
16814;DHT22;8524;57.650;11.926;2023-06-14T07:37:31;26.80;96.00
16814;DHT22;8524;57.650;11.926;2023-06-14T07:39:59;27.00;95.10
16814;DHT22;8524;57.650;11.926;2023-06-14T07:42:26;27.40;94.20
16814;DHT22;8524;57.650;11.926;2023-06-14T07:44:53;27.60;94.40
16814;DHT22;8524;57.650;11.926;2023-06-14T07:47:20;28.00;93.20
16814;DHT22;8524;57.650;11.926;2023-06-14T07:49:47;28.50;88.30
16814;DHT22;8524;57.650;11.926;2023-06-14T07:52:15;28.80;90.40
16814;DHT22;8524;57.650;11.926;2023-06-14T07:54:43;28.70;93.00
16814;DHT22;8524;57.650;11.926;2023-06-14T07:57:14;28.80;92.90
16814;DHT22;8524;57.650;11.926;2023-06-14T07:59:41;28.50;93.90
16814;DHT22;8524;57.650;11.926;2023-06-14T08:02:09;28.90;90.70
16814;DHT22;8524;57.650;11.926;2023-06-14T08:04:42;29.00;87.20
16814;DHT22;8524;57.650;11.926;2023-06-14T08:07:09;28.90;86.60
16814;DHT22;8524;57.650;11.926;2023-06-14T08:09:36;29.10;88.60
16814;DHT22;8524;57.650;11.926;2023-06-14T08:12:09;29.20;82.90
16814;DHT22;8524;57.650;11.926;2023-06-14T08:14:36;29.00;85.50
16814;DHT22;8524;57.650;11.926;2023-06-14T08:17:15;29.20;85.00
16814;DHT22;8524;57.650;11.926;2023-06-14T08:19:46;29.00;82.20
16814;DHT22;8524;57.650;11.926;2023-06-14T08:22:13;29.00;80.50
16814;DHT22;8524;57.650;11.926;2023-06-14T08:24:41;29.10;79.60
16814;DHT22;8524;57.650;11.926;2023-06-14T08:27:10;29.30;74.80
16814;DHT22;8524;57.650;11.926;2023-06-14T08:29:39;28.80;72.30
16814;DHT22;8524;57.650;11.926;2023-06-14T08:32:07;28.90;75.10
16814;DHT22;8524;57.650;11.926;2023-06-14T08:34:34;29.20;76.10
16814;DHT22;8524;57.650;11.926;2023-06-14T08:37:01;28.90;74.70
16814;DHT22;8524;57.650;11.926;2023-06-14T08:39:28;28.80;67.60
16814;DHT22;8524;57.650;11.926;2023-06-14T08:41:56;28.50;67.60
16814;DHT22;8524;57.650;11.926;2023-06-14T08:44:25;28.20;72.10
16814;DHT22;8524;57.650;11.926;2023-06-14T08:47:11;28.20;75.70
16814;DHT22;8524;57.650;11.926;2023-06-14T08:49:55;28.70;77.00
16814;DHT22;8524;57.650;11.926;2023-06-14T08:52:27;28.80;74.90
16814;DHT22;8524;57.650;11.926;2023-06-14T08:54:55;29.20;70.30
16814;DHT22;8524;57.650;11.926;2023-06-14T08:57:23;29.40;69.10
16814;DHT22;8524;57.650;11.926;2023-06-14T08:59:52;29.70;68.50
16814;DHT22;8524;57.650;11.926;2023-06-14T09:02:20;29.80;61.80
16814;DHT22;8524;57.650;11.926;2023-06-14T09:04:48;29.80;59.00
16814;DHT22;8524;57.650;11.926;2023-06-14T09:07:16;29.80;59.20
16814;DHT22;8524;57.650;11.926;2023-06-14T09:09:44;29.70;58.80
16814;DHT22;8524;57.650;11.926;2023-06-14T09:12:11;29.70;60.10
16814;DHT22;8524;57.650;11.926;2023-06-14T09:14:38;29.80;58.90
16814;DHT22;8524;57.650;11.926;2023-06-14T09:17:13;30.10;55.60
16814;DHT22;8524;57.650;11.926;2023-06-14T09:19:40;29.50;61.90
16814;DHT22;8524;57.650;11.926;2023-06-14T09:22:11;29.60;55.90
16814;DHT22;8524;57.650;11.926;2023-06-14T09:24:38;29.70;53.40
16814;DHT22;8524;57.650;11.926;2023-06-14T09:27:06;29.70;57.90
16814;DHT22;8524;57.650;11.926;2023-06-14T09:29:33;29.90;61.00
16814;DHT22;8524;57.650;11.926;2023-06-14T09:32:00;29.60;58.10
16814;DHT22;8524;57.650;11.926;2023-06-14T09:34:29;29.20;59.40
16814;DHT22;8524;57.650;11.926;2023-06-14T09:36:56;29.20;64.50
16814;DHT22;8524;57.650;11.926;2023-06-14T09:39:23;29.30;65.50
16814;DHT22;8524;57.650;11.926;2023-06-14T09:41:52;29.40;62.10
16814;DHT22;8524;57.650;11.926;2023-06-14T09:44:20;29.10;63.20
16814;DHT22;8524;57.650;11.926;2023-06-14T09:46:55;29.50;66.00
16814;DHT22;8524;57.650;11.926;2023-06-14T09:49:25;29.10;62.30
16814;DHT22;8524;57.650;11.926;2023-06-14T09:51:55;29.20;70.80
16814;DHT22;8524;57.650;11.926;2023-06-14T09:54:23;29.20;69.00
16814;DHT22;8524;57.650;11.926;2023-06-14T09:56:52;29.20;66.60
16814;DHT22;8524;57.650;11.926;2023-06-14T09:59:21;29.30;62.40
16814;DHT22;8524;57.650;11.926;2023-06-14T10:01:55;29.20;63.50
16814;DHT22;8524;57.650;11.926;2023-06-14T10:04:28;28.90;65.50
16814;DHT22;8524;57.650;11.926;2023-06-14T10:06:58;28.90;67.60
16814;DHT22;8524;57.650;11.926;2023-06-14T10:09:26;28.70;69.20
16814;DHT22;8524;57.650;11.926;2023-06-14T10:11:56;28.60;67.00
16814;DHT22;8524;57.650;11.926;2023-06-14T10:14:23;28.80;66.40
16814;DHT22;8524;57.650;11.926;2023-06-14T10:17:03;28.90;62.40
16814;DHT22;8524;57.650;11.926;2023-06-14T10:19:36;28.80;59.10
16814;DHT22;8524;57.650;11.926;2023-06-14T10:22:16;28.80;53.70
16814;DHT22;8524;57.650;11.926;2023-06-14T10:24:44;28.60;61.20
16814;DHT22;8524;57.650;11.926;2023-06-14T10:27:17;28.40;63.70
16814;DHT22;8524;57.650;11.926;2023-06-14T10:30:08;28.40;59.50
16814;DHT22;8524;57.650;11.926;2023-06-14T10:32:35;28.60;50.70
16814;DHT22;8524;57.650;11.926;2023-06-14T10:35:22;28.50;49.80
16814;DHT22;8524;57.650;11.926;2023-06-14T10:37:52;29.10;52.30
16814;DHT22;8524;57.650;11.926;2023-06-14T10:40:30;29.00;43.90
16814;DHT22;8524;57.650;11.926;2023-06-14T10:42:57;29.40;46.20
16814;DHT22;8524;57.650;11.926;2023-06-14T10:45:24;29.30;45.00
16814;DHT22;8524;57.650;11.926;2023-06-14T10:47:51;29.50;38.70
16814;DHT22;8524;57.650;11.926;2023-06-14T10:50:30;29.20;37.40
16814;DHT22;8524;57.650;11.926;2023-06-14T10:53:00;29.20;32.40
16814;DHT22;8524;57.650;11.926;2023-06-14T10:55:47;29.20;24.20
16814;DHT22;8524;57.650;11.926;2023-06-14T10:58:14;29.10;23.70
16814;DHT22;8524;57.650;11.926;2023-06-14T11:00:44;29.00;17.20
16814;DHT22;8524;57.650;11.926;2023-06-14T11:03:43;28.80;18.60
16814;DHT22;8524;57.650;11.926;2023-06-14T11:06:14;28.90;17.30
16814;DHT22;8524;57.650;11.926;2023-06-14T11:11:46;28.90;13.30
16814;DHT22;8524;57.650;11.926;2023-06-14T11:14:14;29.10;9.50
16814;DHT22;8524;57.650;11.926;2023-06-14T11:16:42;29.10;3.60
16814;DHT22;8524;57.650;11.926;2023-06-14T11:19:14;29.10;4.70
16814;DHT22;8524;57.650;11.926;2023-06-14T11:21:46;29.30;2.30
16814;DHT22;8524;57.650;11.926;2023-06-14T11:24:16;29.70;3.90
16814;DHT22;8524;57.650;11.926;2023-06-14T11:26:43;29.60;1.00
16814;DHT22;8524;57.650;11.926;2023-06-14T11:29:10;29.50;4.70
16814;DHT22;8524;57.650;11.926;2023-06-14T11:31:38;29.40;4.60
16814;DHT22;8524;57.650;11.926;2023-06-14T11:34:10;29.50;1.00
16814;DHT22;8524;57.650;11.926;2023-06-14T11:36:38;29.40;1.00
16814;DHT22;8524;57.650;11.926;2023-06-14T11:39:05;29.80;5.00
16814;DHT22;8524;57.650;11.926;2023-06-14T11:41:37;30.20;3.80
16814;DHT22;8524;57.650;11.926;2023-06-14T11:44:05;30.20;4.20
16814;DHT22;8524;57.650;11.926;2023-06-14T11:46:32;30.10;1.00
16814;DHT22;8524;57.650;11.926;2023-06-14T11:48:59;30.40;1.00
16814;DHT22;8524;57.650;11.926;2023-06-14T11:51:28;30.30;1.00
16814;DHT22;8524;57.650;11.926;2023-06-14T11:53:56;29.80;1.00
16814;DHT22;8524;57.650;11.926;2023-06-14T11:56:24;29.70;1.00
16814;DHT22;8524;57.650;11.926;2023-06-14T11:58:54;29.80;1.00
16814;DHT22;8524;57.650;11.926;2023-06-14T12:01:23;30.40;1.00
16814;DHT22;8524;57.650;11.926;2023-06-14T12:03:52;30.60;1.00
16814;DHT22;8524;57.650;11.926;2023-06-14T12:06:26;30.30;1.00
16814;DHT22;8524;57.650;11.926;2023-06-14T12:08:58;30.20;1.00
16814;DHT22;8524;57.650;11.926;2023-06-14T12:11:31;29.80;1.00
16814;DHT22;8524;57.650;11.926;2023-06-14T12:14:03;29.80;1.00
16814;DHT22;8524;57.650;11.926;2023-06-14T12:16:32;29.50;1.00
16814;DHT22;8524;57.650;11.926;2023-06-14T12:19:08;29.70;1.00
16814;DHT22;8524;57.650;11.926;2023-06-14T12:21:38;30.10;1.00
16814;DHT22;8524;57.650;11.926;2023-06-14T12:24:06;30.40;1.00
16814;DHT22;8524;57.650;11.926;2023-06-14T12:26:34;30.70;1.00
16814;DHT22;8524;57.650;11.926;2023-06-14T12:29:07;30.50;1.00
16814;DHT22;8524;57.650;11.926;2023-06-14T12:31:34;30.70;1.00
16814;DHT22;8524;57.650;11.926;2023-06-14T12:34:01;30.60;1.00
16814;DHT22;8524;57.650;11.926;2023-06-14T12:36:28;30.50;1.00
16814;DHT22;8524;57.650;11.926;2023-06-14T12:38:55;30.60;1.00
16814;DHT22;8524;57.650;11.926;2023-06-14T12:41:22;30.80;1.00
16814;DHT22;8524;57.650;11.926;2023-06-14T12:43:50;31.10;1.00
16814;DHT22;8524;57.650;11.926;2023-06-14T12:46:18;30.90;1.00
16814;DHT22;8524;57.650;11.926;2023-06-14T12:48:46;30.80;1.00
16814;DHT22;8524;57.650;11.926;2023-06-14T12:51:13;31.20;1.00
16814;DHT22;8524;57.650;11.926;2023-06-14T12:53:41;31.00;1.00
16814;DHT22;8524;57.650;11.926;2023-06-14T12:56:15;30.60;1.00
16814;DHT22;8524;57.650;11.926;2023-06-14T12:58:42;30.80;1.00
16814;DHT22;8524;57.650;11.926;2023-06-14T13:01:09;30.70;1.00
16814;DHT22;8524;57.650;11.926;2023-06-14T13:03:38;30.40;1.00
16814;DHT22;8524;57.650;11.926;2023-06-14T13:06:05;30.50;1.00
16814;DHT22;8524;57.650;11.926;2023-06-14T13:08:35;30.70;1.00
16814;DHT22;8524;57.650;11.926;2023-06-14T13:11:02;30.90;1.00
16814;DHT22;8524;57.650;11.926;2023-06-14T13:13:29;31.30;1.00
16814;DHT22;8524;57.650;11.926;2023-06-14T13:15:56;31.20;1.00
16814;DHT22;8524;57.650;11.926;2023-06-14T13:18:23;31.10;1.00
16814;DHT22;8524;57.650;11.926;2023-06-14T13:20:52;30.90;1.00
16814;DHT22;8524;57.650;11.926;2023-06-14T13:23:19;30.40;1.00
16814;DHT22;8524;57.650;11.926;2023-06-14T13:25:46;30.40;1.00
16814;DHT22;8524;57.650;11.926;2023-06-14T13:28:15;30.60;1.00
16814;DHT22;8524;57.650;11.926;2023-06-14T13:30:42;30.30;1.00
16814;DHT22;8524;57.650;11.926;2023-06-14T13:33:09;29.90;1.00
16814;DHT22;8524;57.650;11.926;2023-06-14T13:35:36;29.70;1.00
16814;DHT22;8524;57.650;11.926;2023-06-14T13:38:05;30.00;1.00
16814;DHT22;8524;57.650;11.926;2023-06-14T13:40:32;30.30;1.00
16814;DHT22;8524;57.650;11.926;2023-06-14T13:42:59;30.70;1.00
16814;DHT22;8524;57.650;11.926;2023-06-14T13:45:26;30.90;1.00
16814;DHT22;8524;57.650;11.926;2023-06-14T13:47:53;31.10;1.00
16814;DHT22;8524;57.650;11.926;2023-06-14T13:50:20;31.30;1.00
16814;DHT22;8524;57.650;11.926;2023-06-14T13:52:47;31.50;1.00
16814;DHT22;8524;57.650;11.926;2023-06-14T13:55:16;31.50;1.00
16814;DHT22;8524;57.650;11.926;2023-06-14T13:57:43;31.20;1.00
16814;DHT22;8524;57.650;11.926;2023-06-14T14:00:20;31.30;1.00
16814;DHT22;8524;57.650;11.926;2023-06-14T14:02:47;31.50;1.00
16814;DHT22;8524;57.650;11.926;2023-06-14T14:05:16;31.10;1.00
16814;DHT22;8524;57.650;11.926;2023-06-14T14:07:43;31.00;1.00
16814;DHT22;8524;57.650;11.926;2023-06-14T14:10:10;31.00;1.00
16814;DHT22;8524;57.650;11.926;2023-06-14T14:12:41;31.00;1.00
16814;DHT22;8524;57.650;11.926;2023-06-14T14:15:09;31.20;1.00
16814;DHT22;8524;57.650;11.926;2023-06-14T14:17:38;30.60;1.00
16814;DHT22;8524;57.650;11.926;2023-06-14T14:20:06;30.30;1.00
16814;DHT22;8524;57.650;11.926;2023-06-14T14:22:33;29.90;1.00
16814;DHT22;8524;57.650;11.926;2023-06-14T14:25:00;29.30;1.00
16814;DHT22;8524;57.650;11.926;2023-06-14T14:27:27;29.50;1.00
16814;DHT22;8524;57.650;11.926;2023-06-14T14:29:55;29.70;1.00
16814;DHT22;8524;57.650;11.926;2023-06-14T14:32:22;29.80;1.00
16814;DHT22;8524;57.650;11.926;2023-06-14T14:34:50;30.20;1.00
16814;DHT22;8524;57.650;11.926;2023-06-14T14:37:17;29.50;1.00
16814;DHT22;8524;57.650;11.926;2023-06-14T14:39:44;29.30;1.00
16814;DHT22;8524;57.650;11.926;2023-06-14T14:42:12;29.00;1.00
16814;DHT22;8524;57.650;11.926;2023-06-14T14:44:39;29.40;1.00
16814;DHT22;8524;57.650;11.926;2023-06-14T14:47:07;29.70;1.00
16814;DHT22;8524;57.650;11.926;2023-06-14T14:49:34;30.00;1.00
16814;DHT22;8524;57.650;11.926;2023-06-14T14:52:01;29.60;1.00
16814;DHT22;8524;57.650;11.926;2023-06-14T14:54:29;29.50;1.00
16814;DHT22;8524;57.650;11.926;2023-06-14T14:56:56;30.00;1.00
16814;DHT22;8524;57.650;11.926;2023-06-14T14:59:23;29.60;1.00
16814;DHT22;8524;57.650;11.926;2023-06-14T15:01:50;29.20;1.00
16814;DHT22;8524;57.650;11.926;2023-06-14T15:04:19;29.40;1.00
16814;DHT22;8524;57.650;11.926;2023-06-14T15:06:46;30.00;1.00
16814;DHT22;8524;57.650;11.926;2023-06-14T15:09:13;30.60;1.00
16814;DHT22;8524;57.650;11.926;2023-06-14T15:11:40;30.90;1.00
16814;DHT22;8524;57.650;11.926;2023-06-14T15:14:09;31.30;1.00
16814;DHT22;8524;57.650;11.926;2023-06-14T15:16:35;31.50;1.00
16814;DHT22;8524;57.650;11.926;2023-06-14T15:19:02;31.70;1.00
16814;DHT22;8524;57.650;11.926;2023-06-14T15:21:31;31.50;1.00
16814;DHT22;8524;57.650;11.926;2023-06-14T15:23:58;31.50;1.00
16814;DHT22;8524;57.650;11.926;2023-06-14T15:26:25;31.50;1.00
16814;DHT22;8524;57.650;11.926;2023-06-14T15:28:53;31.00;1.00
16814;DHT22;8524;57.650;11.926;2023-06-14T15:31:20;30.10;1.00
16814;DHT22;8524;57.650;11.926;2023-06-14T15:33:49;29.20;1.00
16814;DHT22;8524;57.650;11.926;2023-06-14T15:36:16;29.20;1.00
16814;DHT22;8524;57.650;11.926;2023-06-14T15:38:45;29.50;1.00
16814;DHT22;8524;57.650;11.926;2023-06-14T15:41:12;29.50;1.00
16814;DHT22;8524;57.650;11.926;2023-06-14T15:43:39;29.40;1.00
16814;DHT22;8524;57.650;11.926;2023-06-14T15:46:06;28.70;1.00
16814;DHT22;8524;57.650;11.926;2023-06-14T15:48:33;29.20;1.00